sensor_id;sensor_type;location;lat;lon;timestamp;P1;P2;P0
48893;PMS5003;34710;35.798;139.446;2023-01-20T00:01:44;22;19;
48893;PMS5003;34710;35.798;139.446;2023-01-20T00:04:13;26;22;
48893;PMS5003;34710;35.798;139.446;2023-01-20T00:06:42;25;24;
48893;PMS5003;34710;35.798;139.446;2023-01-20T00:09:13;19;19;
48893;PMS5003;34710;35.798;139.446;2023-01-20T00:11:43;31;19;
48893;PMS5003;34710;35.798;139.446;2023-01-20T00:14:13;27;21;
48893;PMS5003;34710;35.798;139.446;2023-01-20T00:16:42;29;23;
48893;PMS5003;34710;35.798;139.446;2023-01-20T00:19:12;23;22;
48893;PMS5003;34710;35.798;139.446;2023-01-20T00:21:42;25;24;
48893;PMS5003;34710;35.798;139.446;2023-01-20T00:24:11;25;24;
48893;PMS5003;34710;35.798;139.446;2023-01-20T00:26:41;29;20;
48893;PMS5003;34710;35.798;139.446;2023-01-20T00:29:11;34;24;
48893;PMS5003;34710;35.798;139.446;2023-01-20T00:31:40;25;24;
48893;PMS5003;34710;35.798;139.446;2023-01-20T00:34:09;25;23;
48893;PMS5003;34710;35.798;139.446;2023-01-20T00:36:38;30;23;
48893;PMS5003;34710;35.798;139.446;2023-01-20T00:39:08;26;23;
48893;PMS5003;34710;35.798;139.446;2023-01-20T00:41:38;33;23;
48893;PMS5003;34710;35.798;139.446;2023-01-20T00:44:07;27;23;
48893;PMS5003;34710;35.798;139.446;2023-01-20T00:46:36;32;24;
48893;PMS5003;34710;35.798;139.446;2023-01-20T00:49:06;36;25;
48893;PMS5003;34710;35.798;139.446;2023-01-20T00:51:36;25;23;
48893;PMS5003;34710;35.798;139.446;2023-01-20T00:54:05;25;25;
48893;PMS5003;34710;35.798;139.446;2023-01-20T00:56:34;22;22;
48893;PMS5003;34710;35.798;139.446;2023-01-20T00:59:04;24;24;
48893;PMS5003;34710;35.798;139.446;2023-01-20T01:01:35;25;24;
48893;PMS5003;34710;35.798;139.446;2023-01-20T01:04:04;30;24;
48893;PMS5003;34710;35.798;139.446;2023-01-20T01:06:33;25;22;
48893;PMS5003;34710;35.798;139.446;2023-01-20T01:09:02;36;25;
48893;PMS5003;34710;35.798;139.446;2023-01-20T01:11:31;24;23;
48893;PMS5003;34710;35.798;139.446;2023-01-20T01:14:01;25;22;
48893;PMS5003;34710;35.798;139.446;2023-01-20T01:16:30;23;22;
48893;PMS5003;34710;35.798;139.446;2023-01-20T01:18:59;24;19;
48893;PMS5003;34710;35.798;139.446;2023-01-20T01:21:29;23;20;
48893;PMS5003;34710;35.798;139.446;2023-01-20T01:23:59;27;22;
48893;PMS5003;34710;35.798;139.446;2023-01-20T01:26:27;24;23;
48893;PMS5003;34710;35.798;139.446;2023-01-20T01:28:56;24;20;
48893;PMS5003;34710;35.798;139.446;2023-01-20T01:31:25;28;22;
48893;PMS5003;34710;35.798;139.446;2023-01-20T01:33:55;33;22;
48893;PMS5003;34710;35.798;139.446;2023-01-20T01:36:25;39;25;
48893;PMS5003;34710;35.798;139.446;2023-01-20T01:38:54;25;23;
48893;PMS5003;34710;35.798;139.446;2023-01-20T01:41:24;29;25;
48893;PMS5003;34710;35.798;139.446;2023-01-20T01:44:02;26;23;
48893;PMS5003;34710;35.798;139.446;2023-01-20T01:46:34;26;25;
48893;PMS5003;34710;35.798;139.446;2023-01-20T01:49:05;28;22;
48893;PMS5003;34710;35.798;139.446;2023-01-20T01:51:38;35;22;
48893;PMS5003;34710;35.798;139.446;2023-01-20T01:54:12;25;24;
48893;PMS5003;34710;35.798;139.446;2023-01-20T01:56:46;24;23;
48893;PMS5003;34710;35.798;139.446;2023-01-20T01:59:17;18;18;
48893;PMS5003;34710;35.798;139.446;2023-01-20T02:01:48;18;18;
48893;PMS5003;34710;35.798;139.446;2023-01-20T02:04:19;23;22;
48893;PMS5003;34710;35.798;139.446;2023-01-20T02:06:51;27;23;
48893;PMS5003;34710;35.798;139.446;2023-01-20T02:09:22;23;22;
48893;PMS5003;34710;35.798;139.446;2023-01-20T02:11:54;28;23;
48893;PMS5003;34710;35.798;139.446;2023-01-20T02:14:27;24;22;
48893;PMS5003;34710;35.798;139.446;2023-01-20T02:17:03;26;21;
48893;PMS5003;34710;35.798;139.446;2023-01-20T02:20:24;22;20;
48893;PMS5003;34710;35.798;139.446;2023-01-20T02:23:31;25;24;
48893;PMS5003;34710;35.798;139.446;2023-01-20T02:26:27;27;22;
48893;PMS5003;34710;35.798;139.446;2023-01-20T02:29:19;27;21;
48893;PMS5003;34710;35.798;139.446;2023-01-20T02:30:35;28;21;
48893;PMS5003;34710;35.798;139.446;2023-01-20T02:33:19;23;21;
48893;PMS5003;34710;35.798;139.446;2023-01-20T02:35:55;30;24;
48893;PMS5003;34710;35.798;139.446;2023-01-20T02:38:33;22;21;
48893;PMS5003;34710;35.798;139.446;2023-01-20T02:41:09;20;18;
48893;PMS5003;34710;35.798;139.446;2023-01-20T02:43:47;23;20;
48893;PMS5003;34710;35.798;139.446;2023-01-20T02:46:25;25;19;
48893;PMS5003;34710;35.798;139.446;2023-01-20T02:49:00;21;19;
48893;PMS5003;34710;35.798;139.446;2023-01-20T02:51:39;26;20;
48893;PMS5003;34710;35.798;139.446;2023-01-20T02:54:16;26;19;
48893;PMS5003;34710;35.798;139.446;2023-01-20T02:56:48;27;21;
48893;PMS5003;34710;35.798;139.446;2023-01-20T02:59:20;21;18;
48893;PMS5003;34710;35.798;139.446;2023-01-20T03:01:56;24;22;
48893;PMS5003;34710;35.798;139.446;2023-01-20T03:04:29;19;18;
48893;PMS5003;34710;35.798;139.446;2023-01-20T03:07:03;22;20;
48893;PMS5003;34710;35.798;139.446;2023-01-20T03:09:34;16;16;
48893;PMS5003;34710;35.798;139.446;2023-01-20T03:12:08;19;18;
48893;PMS5003;34710;35.798;139.446;2023-01-20T03:14:43;20;18;
48893;PMS5003;34710;35.798;139.446;2023-01-20T03:17:12;17;16;
48893;PMS5003;34710;35.798;139.446;2023-01-20T03:19:42;18;17;
48893;PMS5003;34710;35.798;139.446;2023-01-20T03:22:12;16;16;
48893;PMS5003;34710;35.798;139.446;2023-01-20T03:24:41;17;15;
48893;PMS5003;34710;35.798;139.446;2023-01-20T03:27:13;17;17;
48893;PMS5003;34710;35.798;139.446;2023-01-20T03:29:42;20;13;
48893;PMS5003;34710;35.798;139.446;2023-01-20T03:32:12;19;16;
48893;PMS5003;34710;35.798;139.446;2023-01-20T03:34:42;19;17;
48893;PMS5003;34710;35.798;139.446;2023-01-20T03:37:12;16;16;
48893;PMS5003;34710;35.798;139.446;2023-01-20T03:39:41;15;15;
48893;PMS5003;34710;35.798;139.446;2023-01-20T03:42:11;21;18;
48893;PMS5003;34710;35.798;139.446;2023-01-20T03:44:50;15;15;
48893;PMS5003;34710;35.798;139.446;2023-01-20T03:47:32;13;13;
48893;PMS5003;34710;35.798;139.446;2023-01-20T03:50:16;14;14;
48893;PMS5003;34710;35.798;139.446;2023-01-20T03:52:58;19;14;
48893;PMS5003;34710;35.798;139.446;2023-01-20T03:55:34;16;15;
48893;PMS5003;34710;35.798;139.446;2023-01-20T03:58:08;16;14;
48893;PMS5003;34710;35.798;139.446;2023-01-20T04:00:42;16;15;
48893;PMS5003;34710;35.798;139.446;2023-01-20T04:03:15;15;14;
48893;PMS5003;34710;35.798;139.446;2023-01-20T04:05:48;26;14;
48893;PMS5003;34710;35.798;139.446;2023-01-20T04:08:19;15;12;
48893;PMS5003;34710;35.798;139.446;2023-01-20T04:10:51;11;11;
48893;PMS5003;34710;35.798;139.446;2023-01-20T04:13:21;12;11;
48893;PMS5003;34710;35.798;139.446;2023-01-20T04:15:51;11;9;
48893;PMS5003;34710;35.798;139.446;2023-01-20T04:18:21;11;11;
48893;PMS5003;34710;35.798;139.446;2023-01-20T04:20:52;10;10;
48893;PMS5003;34710;35.798;139.446;2023-01-20T04:23:26;10;10;
48893;PMS5003;34710;35.798;139.446;2023-01-20T04:25:58;13;11;
48893;PMS5003;34710;35.798;139.446;2023-01-20T04:28:28;11;11;
48893;PMS5003;34710;35.798;139.446;2023-01-20T04:30:57;12;12;
48893;PMS5003;34710;35.798;139.446;2023-01-20T04:33:27;12;10;
48893;PMS5003;34710;35.798;139.446;2023-01-20T04:35:56;11;9;
48893;PMS5003;34710;35.798;139.446;2023-01-20T04:38:25;12;10;
48893;PMS5003;34710;35.798;139.446;2023-01-20T04:40:55;12;11;
48893;PMS5003;34710;35.798;139.446;2023-01-20T04:43:24;13;13;
48893;PMS5003;34710;35.798;139.446;2023-01-20T04:45:53;13;13;
48893;PMS5003;34710;35.798;139.446;2023-01-20T04:48:23;13;11;
48893;PMS5003;34710;35.798;139.446;2023-01-20T04:50:52;11;11;
48893;PMS5003;34710;35.798;139.446;2023-01-20T04:53:21;11;10;
48893;PMS5003;34710;35.798;139.446;2023-01-20T04:55:50;25;13;
48893;PMS5003;34710;35.798;139.446;2023-01-20T04:58:20;13;11;
48893;PMS5003;34710;35.798;139.446;2023-01-20T05:00:49;14;11;
48893;PMS5003;34710;35.798;139.446;2023-01-20T05:03:19;15;13;
48893;PMS5003;34710;35.798;139.446;2023-01-20T05:05:52;17;12;
48893;PMS5003;34710;35.798;139.446;2023-01-20T05:08:21;12;12;
48893;PMS5003;34710;35.798;139.446;2023-01-20T05:10:50;14;11;
48893;PMS5003;34710;35.798;139.446;2023-01-20T05:13:20;13;13;
48893;PMS5003;34710;35.798;139.446;2023-01-20T05:15:49;19;11;
48893;PMS5003;34710;35.798;139.446;2023-01-20T05:18:18;15;15;
48893;PMS5003;34710;35.798;139.446;2023-01-20T05:20:48;15;14;
48893;PMS5003;34710;35.798;139.446;2023-01-20T05:23:17;16;14;
48893;PMS5003;34710;35.798;139.446;2023-01-20T05:25:49;16;15;
48893;PMS5003;34710;35.798;139.446;2023-01-20T05:28:18;21;17;
48893;PMS5003;34710;35.798;139.446;2023-01-20T05:30:48;19;18;
48893;PMS5003;34710;35.798;139.446;2023-01-20T05:33:17;17;16;
48893;PMS5003;34710;35.798;139.446;2023-01-20T05:35:46;19;13;
48893;PMS5003;34710;35.798;139.446;2023-01-20T05:38:16;17;14;
48893;PMS5003;34710;35.798;139.446;2023-01-20T05:40:45;18;15;
48893;PMS5003;34710;35.798;139.446;2023-01-20T05:43:15;18;15;
48893;PMS5003;34710;35.798;139.446;2023-01-20T05:45:44;17;15;
48893;PMS5003;34710;35.798;139.446;2023-01-20T05:48:13;17;16;
48893;PMS5003;34710;35.798;139.446;2023-01-20T05:50:43;23;16;
48893;PMS5003;34710;35.798;139.446;2023-01-20T05:53:12;17;17;
48893;PMS5003;34710;35.798;139.446;2023-01-20T05:55:43;18;17;
48893;PMS5003;34710;35.798;139.446;2023-01-20T05:58:13;29;17;
48893;PMS5003;34710;35.798;139.446;2023-01-20T06:00:42;22;20;
48893;PMS5003;34710;35.798;139.446;2023-01-20T06:03:11;22;17;
48893;PMS5003;34710;35.798;139.446;2023-01-20T06:05:41;21;19;
48893;PMS5003;34710;35.798;139.446;2023-01-20T06:08:11;29;19;
48893;PMS5003;34710;35.798;139.446;2023-01-20T06:10:40;19;19;
48893;PMS5003;34710;35.798;139.446;2023-01-20T06:13:10;23;19;
48893;PMS5003;34710;35.798;139.446;2023-01-20T06:15:40;18;18;
48893;PMS5003;34710;35.798;139.446;2023-01-20T06:18:10;29;19;
48893;PMS5003;34710;35.798;139.446;2023-01-20T06:20:39;30;18;
48893;PMS5003;34710;35.798;139.446;2023-01-20T06:23:08;22;18;
48893;PMS5003;34710;35.798;139.446;2023-01-20T06:25:37;29;19;
48893;PMS5003;34710;35.798;139.446;2023-01-20T06:28:06;17;16;
48893;PMS5003;34710;35.798;139.446;2023-01-20T06:30:35;24;20;
48893;PMS5003;34710;35.798;139.446;2023-01-20T06:33:04;16;15;
48893;PMS5003;34710;35.798;139.446;2023-01-20T06:35:34;26;15;
48893;PMS5003;34710;35.798;139.446;2023-01-20T06:38:03;16;16;
48893;PMS5003;34710;35.798;139.446;2023-01-20T06:40:32;24;20;
48893;PMS5003;34710;35.798;139.446;2023-01-20T06:43:02;20;17;
48893;PMS5003;34710;35.798;139.446;2023-01-20T06:45:31;21;21;
48893;PMS5003;34710;35.798;139.446;2023-01-20T06:48:00;24;23;
48893;PMS5003;34710;35.798;139.446;2023-01-20T06:50:30;18;17;
48893;PMS5003;34710;35.798;139.446;2023-01-20T06:52:59;26;17;
48893;PMS5003;34710;35.798;139.446;2023-01-20T06:55:28;20;18;
48893;PMS5003;34710;35.798;139.446;2023-01-20T06:57:57;20;19;
48893;PMS5003;34710;35.798;139.446;2023-01-20T07:00:27;27;19;
48893;PMS5003;34710;35.798;139.446;2023-01-20T07:02:56;22;19;
48893;PMS5003;34710;35.798;139.446;2023-01-20T07:05:25;24;23;
48893;PMS5003;34710;35.798;139.446;2023-01-20T07:07:55;32;25;
48893;PMS5003;34710;35.798;139.446;2023-01-20T07:10:24;25;25;
48893;PMS5003;34710;35.798;139.446;2023-01-20T07:12:54;26;24;
48893;PMS5003;34710;35.798;139.446;2023-01-20T07:15:23;28;25;
48893;PMS5003;34710;35.798;139.446;2023-01-20T07:17:53;28;25;
48893;PMS5003;34710;35.798;139.446;2023-01-20T07:20:22;28;26;
48893;PMS5003;34710;35.798;139.446;2023-01-20T07:22:51;43;28;
48893;PMS5003;34710;35.798;139.446;2023-01-20T07:25:20;30;26;
48893;PMS5003;34710;35.798;139.446;2023-01-20T07:27:49;29;22;
48893;PMS5003;34710;35.798;139.446;2023-01-20T07:30:19;33;25;
48893;PMS5003;34710;35.798;139.446;2023-01-20T07:32:48;37;24;
48893;PMS5003;34710;35.798;139.446;2023-01-20T07:35:17;37;23;
48893;PMS5003;34710;35.798;139.446;2023-01-20T07:37:47;39;25;
48893;PMS5003;34710;35.798;139.446;2023-01-20T07:40:17;41;27;
48893;PMS5003;34710;35.798;139.446;2023-01-20T07:42:46;34;25;
48893;PMS5003;34710;35.798;139.446;2023-01-20T07:45:15;38;27;
48893;PMS5003;34710;35.798;139.446;2023-01-20T07:47:45;34;31;
48893;PMS5003;34710;35.798;139.446;2023-01-20T07:50:15;28;25;
48893;PMS5003;34710;35.798;139.446;2023-01-20T07:52:45;36;30;
48893;PMS5003;34710;35.798;139.446;2023-01-20T07:55:15;31;28;
48893;PMS5003;34710;35.798;139.446;2023-01-20T07:57:45;34;28;
48893;PMS5003;34710;35.798;139.446;2023-01-20T08:00:16;28;26;
48893;PMS5003;34710;35.798;139.446;2023-01-20T08:02:46;33;27;
48893;PMS5003;34710;35.798;139.446;2023-01-20T08:05:16;44;27;
48893;PMS5003;34710;35.798;139.446;2023-01-20T08:07:49;31;28;
48893;PMS5003;34710;35.798;139.446;2023-01-20T08:10:19;36;30;
48893;PMS5003;34710;35.798;139.446;2023-01-20T08:12:48;42;29;
48893;PMS5003;34710;35.798;139.446;2023-01-20T08:15:17;32;26;
48893;PMS5003;34710;35.798;139.446;2023-01-20T08:17:48;45;29;
48893;PMS5003;34710;35.798;139.446;2023-01-20T08:20:21;45;32;
48893;PMS5003;34710;35.798;139.446;2023-01-20T08:22:51;29;27;
48893;PMS5003;34710;35.798;139.446;2023-01-20T08:25:21;36;30;
48893;PMS5003;34710;35.798;139.446;2023-01-20T08:27:50;37;25;
48893;PMS5003;34710;35.798;139.446;2023-01-20T08:30:19;41;27;
48893;PMS5003;34710;35.798;139.446;2023-01-20T08:32:48;44;28;
48893;PMS5003;34710;35.798;139.446;2023-01-20T08:35:17;26;25;
48893;PMS5003;34710;35.798;139.446;2023-01-20T08:37:47;27;25;
48893;PMS5003;34710;35.798;139.446;2023-01-20T08:40:17;25;22;
48893;PMS5003;34710;35.798;139.446;2023-01-20T08:42:46;37;23;
48893;PMS5003;34710;35.798;139.446;2023-01-20T08:45:15;28;24;
48893;PMS5003;34710;35.798;139.446;2023-01-20T08:47:44;35;29;
48893;PMS5003;34710;35.798;139.446;2023-01-20T08:50:13;36;27;
48893;PMS5003;34710;35.798;139.446;2023-01-20T08:52:44;39;28;
48893;PMS5003;34710;35.798;139.446;2023-01-20T08:55:13;35;30;
48893;PMS5003;34710;35.798;139.446;2023-01-20T08:57:42;32;28;
48893;PMS5003;34710;35.798;139.446;2023-01-20T09:00:12;48;35;
48893;PMS5003;34710;35.798;139.446;2023-01-20T09:02:43;42;31;
48893;PMS5003;34710;35.798;139.446;2023-01-20T09:05:12;35;26;
48893;PMS5003;34710;35.798;139.446;2023-01-20T09:07:41;32;31;
48893;PMS5003;34710;35.798;139.446;2023-01-20T09:10:11;38;28;
48893;PMS5003;34710;35.798;139.446;2023-01-20T09:12:40;37;29;
48893;PMS5003;34710;35.798;139.446;2023-01-20T09:15:10;43;30;
48893;PMS5003;34710;35.798;139.446;2023-01-20T09:17:40;34;30;
48893;PMS5003;34710;35.798;139.446;2023-01-20T09:20:09;37;31;
48893;PMS5003;34710;35.798;139.446;2023-01-20T09:22:39;52;34;
48893;PMS5003;34710;35.798;139.446;2023-01-20T09:25:10;47;34;
48893;PMS5003;34710;35.798;139.446;2023-01-20T09:27:39;35;28;
48893;PMS5003;34710;35.798;139.446;2023-01-20T09:30:08;33;32;
48893;PMS5003;34710;35.798;139.446;2023-01-20T09:32:38;42;31;
48893;PMS5003;34710;35.798;139.446;2023-01-20T09:35:08;38;27;
48893;PMS5003;34710;35.798;139.446;2023-01-20T09:37:37;34;29;
48893;PMS5003;34710;35.798;139.446;2023-01-20T09:40:08;35;30;
48893;PMS5003;34710;35.798;139.446;2023-01-20T09:42:43;47;30;
48893;PMS5003;34710;35.798;139.446;2023-01-20T09:45:28;39;28;
48893;PMS5003;34710;35.798;139.446;2023-01-20T09:48:07;34;29;
48893;PMS5003;34710;35.798;139.446;2023-01-20T09:50:46;43;33;
48893;PMS5003;34710;35.798;139.446;2023-01-20T09:53:26;40;32;
48893;PMS5003;34710;35.798;139.446;2023-01-20T09:56:09;36;31;
48893;PMS5003;34710;35.798;139.446;2023-01-20T09:58:43;42;30;
48893;PMS5003;34710;35.798;139.446;2023-01-20T10:01:20;36;32;
48893;PMS5003;34710;35.798;139.446;2023-01-20T10:03:56;33;31;
48893;PMS5003;34710;35.798;139.446;2023-01-20T10:06:32;50;29;
48893;PMS5003;34710;35.798;139.446;2023-01-20T10:09:08;45;33;
48893;PMS5003;34710;35.798;139.446;2023-01-20T10:11:45;33;31;
48893;PMS5003;34710;35.798;139.446;2023-01-20T10:14:20;42;33;
48893;PMS5003;34710;35.798;139.446;2023-01-20T10:16:55;48;34;
48893;PMS5003;34710;35.798;139.446;2023-01-20T10:19:32;39;32;
48893;PMS5003;34710;35.798;139.446;2023-01-20T10:22:09;42;33;
48893;PMS5003;34710;35.798;139.446;2023-01-20T10:24:45;35;27;
48893;PMS5003;34710;35.798;139.446;2023-01-20T10:27:19;39;32;
48893;PMS5003;34710;35.798;139.446;2023-01-20T10:29:51;31;28;
48893;PMS5003;34710;35.798;139.446;2023-01-20T10:32:25;43;32;
48893;PMS5003;34710;35.798;139.446;2023-01-20T10:34:59;33;29;
48893;PMS5003;34710;35.798;139.446;2023-01-20T10:37:36;49;34;
48893;PMS5003;34710;35.798;139.446;2023-01-20T10:40:12;40;29;
48893;PMS5003;34710;35.798;139.446;2023-01-20T10:42:52;38;31;
48893;PMS5003;34710;35.798;139.446;2023-01-20T10:45:26;53;31;
48893;PMS5003;34710;35.798;139.446;2023-01-20T10:48:04;45;30;
48893;PMS5003;34710;35.798;139.446;2023-01-20T10:50:50;40;31;
48893;PMS5003;34710;35.798;139.446;2023-01-20T10:53:30;35;30;
48893;PMS5003;34710;35.798;139.446;2023-01-20T10:56:15;48;29;
48893;PMS5003;34710;35.798;139.446;2023-01-20T10:59:01;42;33;
48893;PMS5003;34710;35.798;139.446;2023-01-20T11:01:35;37;34;
48893;PMS5003;34710;35.798;139.446;2023-01-20T11:04:04;47;32;
48893;PMS5003;34710;35.798;139.446;2023-01-20T11:06:41;35;33;
48893;PMS5003;34710;35.798;139.446;2023-01-20T11:09:16;45;33;
48893;PMS5003;34710;35.798;139.446;2023-01-20T11:11:53;45;34;
48893;PMS5003;34710;35.798;139.446;2023-01-20T11:14:26;37;32;
48893;PMS5003;34710;35.798;139.446;2023-01-20T11:16:58;46;33;
48893;PMS5003;34710;35.798;139.446;2023-01-20T11:19:59;37;30;
48893;PMS5003;34710;35.798;139.446;2023-01-20T11:22:34;48;30;
48893;PMS5003;34710;35.798;139.446;2023-01-20T11:25:04;34;33;
48893;PMS5003;34710;35.798;139.446;2023-01-20T11:27:46;48;35;
48893;PMS5003;34710;35.798;139.446;2023-01-20T11:30:23;39;33;
48893;PMS5003;34710;35.798;139.446;2023-01-20T11:33:16;45;35;
48893;PMS5003;34710;35.798;139.446;2023-01-20T11:36:03;40;34;
48893;PMS5003;34710;35.798;139.446;2023-01-20T11:38:42;46;39;
48893;PMS5003;34710;35.798;139.446;2023-01-20T11:41:21;56;45;
48893;PMS5003;34710;35.798;139.446;2023-01-20T11:43:52;50;42;
48893;PMS5003;34710;35.798;139.446;2023-01-20T11:46:25;49;43;
48893;PMS5003;34710;35.798;139.446;2023-01-20T11:49:14;51;44;
48893;PMS5003;34710;35.798;139.446;2023-01-20T11:51:47;54;45;
48893;PMS5003;34710;35.798;139.446;2023-01-20T11:54:19;61;44;
48893;PMS5003;34710;35.798;139.446;2023-01-20T11:56:52;50;43;
48893;PMS5003;34710;35.798;139.446;2023-01-20T11:59:25;56;44;
48893;PMS5003;34710;35.798;139.446;2023-01-20T12:01:58;45;37;
48893;PMS5003;34710;35.798;139.446;2023-01-20T12:04:39;41;30;
48893;PMS5003;34710;35.798;139.446;2023-01-20T12:07:16;33;26;
48893;PMS5003;34710;35.798;139.446;2023-01-20T12:09:51;30;22;
48893;PMS5003;34710;35.798;139.446;2023-01-20T12:12:25;26;18;
48893;PMS5003;34710;35.798;139.446;2023-01-20T12:15:01;16;13;
48893;PMS5003;34710;35.798;139.446;2023-01-20T12:17:40;13;9;
48893;PMS5003;34710;35.798;139.446;2023-01-20T12:20:17;11;10;
48893;PMS5003;34710;35.798;139.446;2023-01-20T12:22:57;19;11;
48893;PMS5003;34710;35.798;139.446;2023-01-20T12:25:41;18;13;
48893;PMS5003;34710;35.798;139.446;2023-01-20T12:28:17;9;8;
48893;PMS5003;34710;35.798;139.446;2023-01-20T12:30:51;8;8;
48893;PMS5003;34710;35.798;139.446;2023-01-20T12:33:24;13;11;
48893;PMS5003;34710;35.798;139.446;2023-01-20T12:36:03;28;16;
48893;PMS5003;34710;35.798;139.446;2023-01-20T12:38:54;15;15;
48893;PMS5003;34710;35.798;139.446;2023-01-20T12:41:38;23;15;
48893;PMS5003;34710;35.798;139.446;2023-01-20T12:44:25;10;9;
48893;PMS5003;34710;35.798;139.446;2023-01-20T12:47:01;8;6;
48893;PMS5003;34710;35.798;139.446;2023-01-20T12:49:44;3;3;
48893;PMS5003;34710;35.798;139.446;2023-01-20T12:52:31;6;6;
48893;PMS5003;34710;35.798;139.446;2023-01-20T12:55:16;5;5;
48893;PMS5003;34710;35.798;139.446;2023-01-20T12:57:57;6;4;
48893;PMS5003;34710;35.798;139.446;2023-01-20T13:00:38;6;4;
48893;PMS5003;34710;35.798;139.446;2023-01-20T13:03:38;5;5;
48893;PMS5003;34710;35.798;139.446;2023-01-20T13:07:23;5;5;
48893;PMS5003;34710;35.798;139.446;2023-01-20T13:10:12;6;4;
48893;PMS5003;34710;35.798;139.446;2023-01-20T13:12:52;7;5;
48893;PMS5003;34710;35.798;139.446;2023-01-20T13:15:28;5;5;
48893;PMS5003;34710;35.798;139.446;2023-01-20T13:18:04;7;6;
48893;PMS5003;34710;35.798;139.446;2023-01-20T13:20:54;5;5;
48893;PMS5003;34710;35.798;139.446;2023-01-20T13:23:26;9;5;
48893;PMS5003;34710;35.798;139.446;2023-01-20T13:25:58;7;6;
48893;PMS5003;34710;35.798;139.446;2023-01-20T13:28:31;6;6;
48893;PMS5003;34710;35.798;139.446;2023-01-20T13:31:00;5;4;
48893;PMS5003;34710;35.798;139.446;2023-01-20T13:34:27;9;6;
48893;PMS5003;34710;35.798;139.446;2023-01-20T13:37:17;8;6;
48893;PMS5003;34710;35.798;139.446;2023-01-20T13:39:51;8;5;
48893;PMS5003;34710;35.798;139.446;2023-01-20T13:42:30;7;6;
48893;PMS5003;34710;35.798;139.446;2023-01-20T13:45:17;7;6;
48893;PMS5003;34710;35.798;139.446;2023-01-20T13:47:51;5;5;
48893;PMS5003;34710;35.798;139.446;2023-01-20T13:50:25;7;7;
48893;PMS5003;34710;35.798;139.446;2023-01-20T13:53:13;8;6;
48893;PMS5003;34710;35.798;139.446;2023-01-20T13:55:59;9;6;
48893;PMS5003;34710;35.798;139.446;2023-01-20T13:58:29;8;7;
48893;PMS5003;34710;35.798;139.446;2023-01-20T14:01:01;7;6;
48893;PMS5003;34710;35.798;139.446;2023-01-20T14:03:33;9;5;
48893;PMS5003;34710;35.798;139.446;2023-01-20T14:06:04;6;4;
48893;PMS5003;34710;35.798;139.446;2023-01-20T14:08:45;7;4;
48893;PMS5003;34710;35.798;139.446;2023-01-20T14:11:17;6;5;
48893;PMS5003;34710;35.798;139.446;2023-01-20T14:13:50;8;7;
48893;PMS5003;34710;35.798;139.446;2023-01-20T14:16:24;6;6;
48893;PMS5003;34710;35.798;139.446;2023-01-20T14:18:55;8;6;
48893;PMS5003;34710;35.798;139.446;2023-01-20T14:21:28;6;4;
48893;PMS5003;34710;35.798;139.446;2023-01-20T14:24:21;6;4;
48893;PMS5003;34710;35.798;139.446;2023-01-20T14:27:04;6;5;
48893;PMS5003;34710;35.798;139.446;2023-01-20T14:29:34;6;5;
48893;PMS5003;34710;35.798;139.446;2023-01-20T14:32:11;5;5;
48893;PMS5003;34710;35.798;139.446;2023-01-20T14:34:51;10;5;
48893;PMS5003;34710;35.798;139.446;2023-01-20T14:37:23;5;5;
48893;PMS5003;34710;35.798;139.446;2023-01-20T14:39:55;3;3;
48893;PMS5003;34710;35.798;139.446;2023-01-20T14:42:27;5;5;
48893;PMS5003;34710;35.798;139.446;2023-01-20T14:44:56;5;4;
48893;PMS5003;34710;35.798;139.446;2023-01-20T14:47:36;8;4;
48893;PMS5003;34710;35.798;139.446;2023-01-20T14:50:10;4;4;
48893;PMS5003;34710;35.798;139.446;2023-01-20T14:52:40;7;5;
48893;PMS5003;34710;35.798;139.446;2023-01-20T14:55:25;6;4;
48893;PMS5003;34710;35.798;139.446;2023-01-20T14:57:57;3;3;
48893;PMS5003;34710;35.798;139.446;2023-01-20T15:00:28;3;3;
48893;PMS5003;34710;35.798;139.446;2023-01-20T15:03:03;3;3;
48893;PMS5003;34710;35.798;139.446;2023-01-20T15:05:34;3;3;
48893;PMS5003;34710;35.798;139.446;2023-01-20T15:08:21;3;2;
48893;PMS5003;34710;35.798;139.446;2023-01-20T15:11:25;3;3;
48893;PMS5003;34710;35.798;139.446;2023-01-20T15:14:10;2;2;
48893;PMS5003;34710;35.798;139.446;2023-01-20T15:16:47;1;1;
48893;PMS5003;34710;35.798;139.446;2023-01-20T15:19:18;3;2;
48893;PMS5003;34710;35.798;139.446;2023-01-20T15:22:13;3;2;
48893;PMS5003;34710;35.798;139.446;2023-01-20T15:24:45;0;0;
48893;PMS5003;34710;35.798;139.446;2023-01-20T15:27:31;2;2;
48893;PMS5003;34710;35.798;139.446;2023-01-20T15:30:02;1;1;
48893;PMS5003;34710;35.798;139.446;2023-01-20T15:32:40;3;1;
48893;PMS5003;34710;35.798;139.446;2023-01-20T15:35:12;2;2;
48893;PMS5003;34710;35.798;139.446;2023-01-20T15:37:42;2;2;
48893;PMS5003;34710;35.798;139.446;2023-01-20T15:40:13;4;1;
48893;PMS5003;34710;35.798;139.446;2023-01-20T15:42:44;1;1;
48893;PMS5003;34710;35.798;139.446;2023-01-20T15:45:14;5;2;
48893;PMS5003;34710;35.798;139.446;2023-01-20T15:47:45;3;3;
48893;PMS5003;34710;35.798;139.446;2023-01-20T15:50:16;2;2;
48893;PMS5003;34710;35.798;139.446;2023-01-20T15:52:47;1;1;
48893;PMS5003;34710;35.798;139.446;2023-01-20T15:55:17;1;1;
48893;PMS5003;34710;35.798;139.446;2023-01-20T15:57:48;2;2;
48893;PMS5003;34710;35.798;139.446;2023-01-20T16:00:19;1;0;
48893;PMS5003;34710;35.798;139.446;2023-01-20T16:02:49;0;0;
48893;PMS5003;34710;35.798;139.446;2023-01-20T16:05:19;2;1;
48893;PMS5003;34710;35.798;139.446;2023-01-20T16:07:48;1;0;
48893;PMS5003;34710;35.798;139.446;2023-01-20T16:10:18;0;0;
48893;PMS5003;34710;35.798;139.446;2023-01-20T16:12:47;0;0;
48893;PMS5003;34710;35.798;139.446;2023-01-20T16:15:16;2;1;
48893;PMS5003;34710;35.798;139.446;2023-01-20T16:17:45;0;0;
48893;PMS5003;34710;35.798;139.446;2023-01-20T16:20:18;0;0;
48893;PMS5003;34710;35.798;139.446;2023-01-20T16:22:50;2;1;
48893;PMS5003;34710;35.798;139.446;2023-01-20T16:25:19;2;1;
48893;PMS5003;34710;35.798;139.446;2023-01-20T16:27:49;2;1;
48893;PMS5003;34710;35.798;139.446;2023-01-20T16:30:19;1;1;
48893;PMS5003;34710;35.798;139.446;2023-01-20T16:32:50;1;1;
48893;PMS5003;34710;35.798;139.446;2023-01-20T16:35:19;0;0;